sensor_id;sensor_type;location;lat;lon;timestamp;temperature;humidity
20574;DHT22;10445;50.216;7.912;2022-12-07T00:00:05;1.50;99.90
20574;DHT22;10445;50.216;7.912;2022-12-07T00:02:54;1.50;99.90
20574;DHT22;10445;50.216;7.912;2022-12-07T00:05:44;1.50;99.90
20574;DHT22;10445;50.216;7.912;2022-12-07T00:08:33;1.50;99.90
20574;DHT22;10445;50.216;7.912;2022-12-07T00:11:23;1.50;99.90
20574;DHT22;10445;50.216;7.912;2022-12-07T00:14:14;1.40;99.90
20574;DHT22;10445;50.216;7.912;2022-12-07T00:17:03;1.40;99.90
20574;DHT22;10445;50.216;7.912;2022-12-07T00:19:52;1.40;99.90
20574;DHT22;10445;50.216;7.912;2022-12-07T00:22:42;1.40;99.90
20574;DHT22;10445;50.216;7.912;2022-12-07T00:25:30;1.50;99.90
20574;DHT22;10445;50.216;7.912;2022-12-07T00:28:19;1.50;99.90
20574;DHT22;10445;50.216;7.912;2022-12-07T00:31:09;1.50;99.90
20574;DHT22;10445;50.216;7.912;2022-12-07T00:33:58;1.50;99.90
20574;DHT22;10445;50.216;7.912;2022-12-07T00:36:48;1.50;99.90
20574;DHT22;10445;50.216;7.912;2022-12-07T00:39:38;1.50;99.90
20574;DHT22;10445;50.216;7.912;2022-12-07T00:42:27;1.60;99.90
20574;DHT22;10445;50.216;7.912;2022-12-07T00:45:15;1.60;99.90
20574;DHT22;10445;50.216;7.912;2022-12-07T00:48:04;1.60;99.90
20574;DHT22;10445;50.216;7.912;2022-12-07T00:50:53;1.50;99.90
20574;DHT22;10445;50.216;7.912;2022-12-07T00:53:42;1.50;99.90
20574;DHT22;10445;50.216;7.912;2022-12-07T00:56:32;1.50;99.90
20574;DHT22;10445;50.216;7.912;2022-12-07T00:59:20;1.40;99.90
20574;DHT22;10445;50.216;7.912;2022-12-07T01:02:09;1.40;99.90
20574;DHT22;10445;50.216;7.912;2022-12-07T01:04:58;1.40;99.90
20574;DHT22;10445;50.216;7.912;2022-12-07T01:07:47;1.40;99.90
20574;DHT22;10445;50.216;7.912;2022-12-07T01:10:35;1.40;99.90
20574;DHT22;10445;50.216;7.912;2022-12-07T01:13:25;1.40;99.90
20574;DHT22;10445;50.216;7.912;2022-12-07T01:16:16;1.40;99.90
20574;DHT22;10445;50.216;7.912;2022-12-07T01:19:05;1.40;99.90
20574;DHT22;10445;50.216;7.912;2022-12-07T01:21:54;1.40;99.90
20574;DHT22;10445;50.216;7.912;2022-12-07T01:24:43;1.40;99.90
20574;DHT22;10445;50.216;7.912;2022-12-07T01:27:34;1.40;99.90
20574;DHT22;10445;50.216;7.912;2022-12-07T01:30:24;1.40;99.90
20574;DHT22;10445;50.216;7.912;2022-12-07T01:33:12;1.40;99.90
20574;DHT22;10445;50.216;7.912;2022-12-07T01:36:02;1.50;99.90
20574;DHT22;10445;50.216;7.912;2022-12-07T01:38:55;1.50;99.90
20574;DHT22;10445;50.216;7.912;2022-12-07T01:41:44;1.50;99.90
20574;DHT22;10445;50.216;7.912;2022-12-07T01:47:38;1.40;99.90
20574;DHT22;10445;50.216;7.912;2022-12-07T01:50:28;1.40;99.90
20574;DHT22;10445;50.216;7.912;2022-12-07T01:53:19;1.40;99.90
20574;DHT22;10445;50.216;7.912;2022-12-07T01:56:10;1.40;99.90
20574;DHT22;10445;50.216;7.912;2022-12-07T01:59:01;1.40;99.90
20574;DHT22;10445;50.216;7.912;2022-12-07T02:01:50;1.50;99.90
20574;DHT22;10445;50.216;7.912;2022-12-07T02:04:41;1.50;99.90
20574;DHT22;10445;50.216;7.912;2022-12-07T02:07:31;1.50;99.90
20574;DHT22;10445;50.216;7.912;2022-12-07T02:10:23;1.50;99.90
20574;DHT22;10445;50.216;7.912;2022-12-07T02:13:14;1.50;99.90
20574;DHT22;10445;50.216;7.912;2022-12-07T02:16:11;1.50;99.90
20574;DHT22;10445;50.216;7.912;2022-12-07T02:25:59;1.60;99.90
20574;DHT22;10445;50.216;7.912;2022-12-07T02:29:12;1.60;99.90
20574;DHT22;10445;50.216;7.912;2022-12-07T02:32:06;1.70;99.90
20574;DHT22;10445;50.216;7.912;2022-12-07T02:35:01;1.70;99.90
20574;DHT22;10445;50.216;7.912;2022-12-07T02:37:58;1.70;99.90
20574;DHT22;10445;50.216;7.912;2022-12-07T02:40:54;1.70;99.90
20574;DHT22;10445;50.216;7.912;2022-12-07T02:43:46;1.80;99.90
20574;DHT22;10445;50.216;7.912;2022-12-07T02:46:40;1.80;99.90
20574;DHT22;10445;50.216;7.912;2022-12-07T02:49:30;1.70;99.90
20574;DHT22;10445;50.216;7.912;2022-12-07T02:52:19;1.70;99.90
20574;DHT22;10445;50.216;7.912;2022-12-07T02:55:08;1.80;99.90
20574;DHT22;10445;50.216;7.912;2022-12-07T02:58:11;1.80;99.90
20574;DHT22;10445;50.216;7.912;2022-12-07T03:01:09;1.90;99.90
20574;DHT22;10445;50.216;7.912;2022-12-07T03:04:10;1.80;99.90
20574;DHT22;10445;50.216;7.912;2022-12-07T03:07:06;1.80;99.90
20574;DHT22;10445;50.216;7.912;2022-12-07T03:10:06;1.80;99.90
20574;DHT22;10445;50.216;7.912;2022-12-07T03:13:03;1.80;99.90
20574;DHT22;10445;50.216;7.912;2022-12-07T03:15:57;1.90;99.90
20574;DHT22;10445;50.216;7.912;2022-12-07T03:18:52;1.90;99.90
20574;DHT22;10445;50.216;7.912;2022-12-07T03:21:47;1.80;99.90
20574;DHT22;10445;50.216;7.912;2022-12-07T03:24:40;1.90;99.90
20574;DHT22;10445;50.216;7.912;2022-12-07T03:27:33;1.90;99.90
20574;DHT22;10445;50.216;7.912;2022-12-07T03:30:24;1.90;99.90
20574;DHT22;10445;50.216;7.912;2022-12-07T03:33:16;1.90;99.90
20574;DHT22;10445;50.216;7.912;2022-12-07T03:36:12;1.90;99.90
20574;DHT22;10445;50.216;7.912;2022-12-07T03:39:11;1.90;99.90
20574;DHT22;10445;50.216;7.912;2022-12-07T03:42:04;1.90;99.90
20574;DHT22;10445;50.216;7.912;2022-12-07T03:44:53;1.90;99.90
20574;DHT22;10445;50.216;7.912;2022-12-07T03:47:46;1.90;99.90
20574;DHT22;10445;50.216;7.912;2022-12-07T03:50:41;1.90;99.90
20574;DHT22;10445;50.216;7.912;2022-12-07T03:53:35;2.00;99.90
20574;DHT22;10445;50.216;7.912;2022-12-07T03:56:28;2.00;99.90
20574;DHT22;10445;50.216;7.912;2022-12-07T03:59:18;2.00;99.90
20574;DHT22;10445;50.216;7.912;2022-12-07T04:02:08;1.90;99.90
20574;DHT22;10445;50.216;7.912;2022-12-07T04:04:59;2.00;99.90
20574;DHT22;10445;50.216;7.912;2022-12-07T04:07:48;1.90;99.90
20574;DHT22;10445;50.216;7.912;2022-12-07T04:10:37;2.00;99.90
20574;DHT22;10445;50.216;7.912;2022-12-07T04:13:27;1.90;99.90
20574;DHT22;10445;50.216;7.912;2022-12-07T04:16:16;2.00;99.90
20574;DHT22;10445;50.216;7.912;2022-12-07T04:19:04;2.00;99.90
20574;DHT22;10445;50.216;7.912;2022-12-07T04:21:53;2.00;99.90
20574;DHT22;10445;50.216;7.912;2022-12-07T04:24:42;2.00;99.90
20574;DHT22;10445;50.216;7.912;2022-12-07T04:27:31;2.00;99.90
20574;DHT22;10445;50.216;7.912;2022-12-07T04:30:21;2.00;99.90
20574;DHT22;10445;50.216;7.912;2022-12-07T04:33:09;2.00;99.90
20574;DHT22;10445;50.216;7.912;2022-12-07T04:35:58;2.00;99.90
20574;DHT22;10445;50.216;7.912;2022-12-07T04:38:47;2.00;99.90
20574;DHT22;10445;50.216;7.912;2022-12-07T04:41:36;2.10;99.90
20574;DHT22;10445;50.216;7.912;2022-12-07T04:44:25;2.00;99.90
20574;DHT22;10445;50.216;7.912;2022-12-07T04:47:15;2.00;99.90
20574;DHT22;10445;50.216;7.912;2022-12-07T04:50:05;2.00;99.90
20574;DHT22;10445;50.216;7.912;2022-12-07T04:52:54;1.90;99.90
20574;DHT22;10445;50.216;7.912;2022-12-07T04:55:44;1.90;99.90
20574;DHT22;10445;50.216;7.912;2022-12-07T04:58:32;2.00;99.90
20574;DHT22;10445;50.216;7.912;2022-12-07T05:01:22;2.00;99.90
20574;DHT22;10445;50.216;7.912;2022-12-07T05:04:13;2.10;99.90
20574;DHT22;10445;50.216;7.912;2022-12-07T05:07:03;2.00;99.90
20574;DHT22;10445;50.216;7.912;2022-12-07T05:09:51;2.00;99.90
20574;DHT22;10445;50.216;7.912;2022-12-07T05:12:40;2.00;99.90
20574;DHT22;10445;50.216;7.912;2022-12-07T05:15:29;2.00;99.90
20574;DHT22;10445;50.216;7.912;2022-12-07T05:18:17;2.00;99.90
20574;DHT22;10445;50.216;7.912;2022-12-07T05:21:08;2.10;99.90
20574;DHT22;10445;50.216;7.912;2022-12-07T05:23:56;2.10;99.90
20574;DHT22;10445;50.216;7.912;2022-12-07T05:26:45;2.10;99.90
20574;DHT22;10445;50.216;7.912;2022-12-07T05:29:34;2.00;99.90
20574;DHT22;10445;50.216;7.912;2022-12-07T05:32:23;2.10;99.90
20574;DHT22;10445;50.216;7.912;2022-12-07T05:35:11;2.00;99.90
20574;DHT22;10445;50.216;7.912;2022-12-07T05:38:01;2.10;99.90
20574;DHT22;10445;50.216;7.912;2022-12-07T05:40:50;2.10;99.90
20574;DHT22;10445;50.216;7.912;2022-12-07T05:43:39;2.00;99.90
20574;DHT22;10445;50.216;7.912;2022-12-07T05:46:27;2.00;99.90
20574;DHT22;10445;50.216;7.912;2022-12-07T05:49:16;2.00;99.90
20574;DHT22;10445;50.216;7.912;2022-12-07T05:52:05;2.00;99.90
20574;DHT22;10445;50.216;7.912;2022-12-07T05:54:55;2.10;99.90
20574;DHT22;10445;50.216;7.912;2022-12-07T05:57:44;2.10;99.90
20574;DHT22;10445;50.216;7.912;2022-12-07T06:00:54;2.10;99.90
20574;DHT22;10445;50.216;7.912;2022-12-07T06:03:42;2.00;99.90
20574;DHT22;10445;50.216;7.912;2022-12-07T06:06:31;2.10;99.90
20574;DHT22;10445;50.216;7.912;2022-12-07T06:09:21;2.00;99.90
20574;DHT22;10445;50.216;7.912;2022-12-07T06:12:12;2.10;99.90
20574;DHT22;10445;50.216;7.912;2022-12-07T06:15:18;2.00;99.90
20574;DHT22;10445;50.216;7.912;2022-12-07T06:18:06;2.10;99.90
20574;DHT22;10445;50.216;7.912;2022-12-07T06:20:55;2.00;99.90
20574;DHT22;10445;50.216;7.912;2022-12-07T06:23:44;2.00;99.90
20574;DHT22;10445;50.216;7.912;2022-12-07T06:26:32;2.00;99.90
20574;DHT22;10445;50.216;7.912;2022-12-07T06:29:22;2.00;99.90
20574;DHT22;10445;50.216;7.912;2022-12-07T06:32:11;2.00;99.90
20574;DHT22;10445;50.216;7.912;2022-12-07T06:35:00;2.00;99.90
20574;DHT22;10445;50.216;7.912;2022-12-07T06:37:49;2.10;99.90
20574;DHT22;10445;50.216;7.912;2022-12-07T06:40:37;2.10;99.90
20574;DHT22;10445;50.216;7.912;2022-12-07T06:43:26;2.10;99.90
20574;DHT22;10445;50.216;7.912;2022-12-07T06:46:16;2.10;99.90
20574;DHT22;10445;50.216;7.912;2022-12-07T06:49:05;2.20;99.90
20574;DHT22;10445;50.216;7.912;2022-12-07T06:51:54;2.20;99.90
20574;DHT22;10445;50.216;7.912;2022-12-07T06:54:43;2.20;99.90
20574;DHT22;10445;50.216;7.912;2022-12-07T06:57:32;2.20;99.90
20574;DHT22;10445;50.216;7.912;2022-12-07T07:00:21;2.20;99.90
20574;DHT22;10445;50.216;7.912;2022-12-07T07:03:11;2.20;99.90
20574;DHT22;10445;50.216;7.912;2022-12-07T07:06:00;2.20;99.90
20574;DHT22;10445;50.216;7.912;2022-12-07T07:08:48;2.20;99.90
20574;DHT22;10445;50.216;7.912;2022-12-07T07:11:37;2.20;99.90
20574;DHT22;10445;50.216;7.912;2022-12-07T07:14:26;2.20;99.90
20574;DHT22;10445;50.216;7.912;2022-12-07T07:17:15;2.20;99.90
20574;DHT22;10445;50.216;7.912;2022-12-07T07:20:06;2.20;99.90
20574;DHT22;10445;50.216;7.912;2022-12-07T07:22:55;2.10;99.90
20574;DHT22;10445;50.216;7.912;2022-12-07T07:25:44;2.10;99.90
20574;DHT22;10445;50.216;7.912;2022-12-07T07:28:33;2.10;99.90
20574;DHT22;10445;50.216;7.912;2022-12-07T07:31:22;2.20;99.90
20574;DHT22;10445;50.216;7.912;2022-12-07T07:34:10;2.20;99.90
20574;DHT22;10445;50.216;7.912;2022-12-07T07:37:01;2.20;99.90
20574;DHT22;10445;50.216;7.912;2022-12-07T07:39:49;2.10;99.90
20574;DHT22;10445;50.216;7.912;2022-12-07T07:42:38;2.10;99.90
20574;DHT22;10445;50.216;7.912;2022-12-07T07:45:27;2.10;99.90
20574;DHT22;10445;50.216;7.912;2022-12-07T07:48:16;2.20;99.90
20574;DHT22;10445;50.216;7.912;2022-12-07T07:51:05;2.20;99.90
20574;DHT22;10445;50.216;7.912;2022-12-07T07:53:56;2.20;99.90
20574;DHT22;10445;50.216;7.912;2022-12-07T07:56:45;2.20;99.90
20574;DHT22;10445;50.216;7.912;2022-12-07T07:59:33;2.30;99.90
20574;DHT22;10445;50.216;7.912;2022-12-07T08:02:22;2.40;99.90
20574;DHT22;10445;50.216;7.912;2022-12-07T08:05:11;2.40;99.90
20574;DHT22;10445;50.216;7.912;2022-12-07T08:08:00;2.30;99.90
20574;DHT22;10445;50.216;7.912;2022-12-07T08:10:51;2.10;99.90
20574;DHT22;10445;50.216;7.912;2022-12-07T08:13:39;2.00;99.90
20574;DHT22;10445;50.216;7.912;2022-12-07T08:16:28;2.00;99.90
20574;DHT22;10445;50.216;7.912;2022-12-07T08:19:17;2.00;99.90
20574;DHT22;10445;50.216;7.912;2022-12-07T08:22:05;2.00;99.90
20574;DHT22;10445;50.216;7.912;2022-12-07T08:24:54;2.10;99.90
20574;DHT22;10445;50.216;7.912;2022-12-07T08:27:44;2.10;99.90
20574;DHT22;10445;50.216;7.912;2022-12-07T08:30:33;2.30;99.90
20574;DHT22;10445;50.216;7.912;2022-12-07T08:33:22;2.40;99.90
20574;DHT22;10445;50.216;7.912;2022-12-07T08:36:11;2.50;99.90
20574;DHT22;10445;50.216;7.912;2022-12-07T08:39:00;2.50;99.90
20574;DHT22;10445;50.216;7.912;2022-12-07T08:42:09;2.50;99.90
20574;DHT22;10445;50.216;7.912;2022-12-07T08:44:59;2.50;99.90
20574;DHT22;10445;50.216;7.912;2022-12-07T08:47:51;2.50;99.90
20574;DHT22;10445;50.216;7.912;2022-12-07T08:50:41;2.50;99.90
20574;DHT22;10445;50.216;7.912;2022-12-07T08:53:37;2.40;99.90
20574;DHT22;10445;50.216;7.912;2022-12-07T08:56:26;2.30;99.90
20574;DHT22;10445;50.216;7.912;2022-12-07T08:59:16;2.30;99.90
20574;DHT22;10445;50.216;7.912;2022-12-07T09:02:07;2.30;99.90
20574;DHT22;10445;50.216;7.912;2022-12-07T09:04:56;2.30;99.90
20574;DHT22;10445;50.216;7.912;2022-12-07T09:07:47;2.30;99.90
20574;DHT22;10445;50.216;7.912;2022-12-07T09:10:37;2.30;99.90
20574;DHT22;10445;50.216;7.912;2022-12-07T09:13:26;2.30;99.90
20574;DHT22;10445;50.216;7.912;2022-12-07T09:16:14;2.30;99.90
20574;DHT22;10445;50.216;7.912;2022-12-07T09:19:05;2.30;99.90
20574;DHT22;10445;50.216;7.912;2022-12-07T09:21:54;2.40;99.90
20574;DHT22;10445;50.216;7.912;2022-12-07T09:24:42;2.40;99.90
20574;DHT22;10445;50.216;7.912;2022-12-07T09:27:32;2.50;99.90
20574;DHT22;10445;50.216;7.912;2022-12-07T09:30:21;2.40;99.90
20574;DHT22;10445;50.216;7.912;2022-12-07T09:33:10;2.50;99.90
20574;DHT22;10445;50.216;7.912;2022-12-07T09:36:00;2.50;99.90
20574;DHT22;10445;50.216;7.912;2022-12-07T09:38:49;2.50;99.90
20574;DHT22;10445;50.216;7.912;2022-12-07T09:41:39;2.50;99.90
20574;DHT22;10445;50.216;7.912;2022-12-07T09:44:29;2.60;99.90
20574;DHT22;10445;50.216;7.912;2022-12-07T09:47:18;2.70;99.90
20574;DHT22;10445;50.216;7.912;2022-12-07T09:50:14;2.70;99.90
20574;DHT22;10445;50.216;7.912;2022-12-07T09:53:10;2.80;99.90
20574;DHT22;10445;50.216;7.912;2022-12-07T09:56:02;2.70;99.90
20574;DHT22;10445;50.216;7.912;2022-12-07T09:58:54;2.60;99.90
20574;DHT22;10445;50.216;7.912;2022-12-07T10:01:47;2.70;99.90
20574;DHT22;10445;50.216;7.912;2022-12-07T10:04:37;2.80;99.90
20574;DHT22;10445;50.216;7.912;2022-12-07T10:07:26;2.80;99.90
20574;DHT22;10445;50.216;7.912;2022-12-07T10:10:20;2.90;99.90
20574;DHT22;10445;50.216;7.912;2022-12-07T10:13:12;3.00;99.90
20574;DHT22;10445;50.216;7.912;2022-12-07T10:16:01;3.30;99.90
20574;DHT22;10445;50.216;7.912;2022-12-07T10:18:54;3.30;99.90
20574;DHT22;10445;50.216;7.912;2022-12-07T10:22:00;3.30;99.90
20574;DHT22;10445;50.216;7.912;2022-12-07T10:24:49;3.30;99.90
20574;DHT22;10445;50.216;7.912;2022-12-07T10:27:39;3.50;99.90
20574;DHT22;10445;50.216;7.912;2022-12-07T10:30:28;3.60;99.90
20574;DHT22;10445;50.216;7.912;2022-12-07T10:33:40;3.70;99.90
20574;DHT22;10445;50.216;7.912;2022-12-07T10:36:38;3.50;99.70
20574;DHT22;10445;50.216;7.912;2022-12-07T10:39:26;3.40;99.20
20574;DHT22;10445;50.216;7.912;2022-12-07T10:42:20;3.20;99.50
20574;DHT22;10445;50.216;7.912;2022-12-07T10:45:14;3.00;98.90
20574;DHT22;10445;50.216;7.912;2022-12-07T10:48:10;2.90;99.80
20574;DHT22;10445;50.216;7.912;2022-12-07T10:51:06;2.70;99.90
20574;DHT22;10445;50.216;7.912;2022-12-07T10:54:07;2.70;99.90
20574;DHT22;10445;50.216;7.912;2022-12-07T10:57:20;2.70;99.90
20574;DHT22;10445;50.216;7.912;2022-12-07T11:00:17;2.70;99.90
20574;DHT22;10445;50.216;7.912;2022-12-07T11:03:26;2.70;99.90
20574;DHT22;10445;50.216;7.912;2022-12-07T11:06:27;2.80;99.90
20574;DHT22;10445;50.216;7.912;2022-12-07T11:13:15;3.00;99.90
20574;DHT22;10445;50.216;7.912;2022-12-07T11:16:34;3.00;99.90
20574;DHT22;10445;50.216;7.912;2022-12-07T11:19:34;3.00;99.90
20574;DHT22;10445;50.216;7.912;2022-12-07T11:22:36;3.10;99.90
20574;DHT22;10445;50.216;7.912;2022-12-07T11:25:32;3.20;99.90
20574;DHT22;10445;50.216;7.912;2022-12-07T11:28:33;3.20;99.90
20574;DHT22;10445;50.216;7.912;2022-12-07T11:31:31;3.10;99.90
20574;DHT22;10445;50.216;7.912;2022-12-07T11:34:27;3.10;99.90
20574;DHT22;10445;50.216;7.912;2022-12-07T11:37:21;3.30;99.90
20574;DHT22;10445;50.216;7.912;2022-12-07T11:40:19;3.40;99.90
20574;DHT22;10445;50.216;7.912;2022-12-07T11:43:15;3.50;99.90
20574;DHT22;10445;50.216;7.912;2022-12-07T11:46:10;3.50;99.90
20574;DHT22;10445;50.216;7.912;2022-12-07T11:49:08;3.60;99.90
20574;DHT22;10445;50.216;7.912;2022-12-07T11:52:01;3.90;99.90
20574;DHT22;10445;50.216;7.912;2022-12-07T11:54:52;4.00;99.90
20574;DHT22;10445;50.216;7.912;2022-12-07T11:57:44;3.90;99.80
20574;DHT22;10445;50.216;7.912;2022-12-07T12:00:34;3.80;98.00
20574;DHT22;10445;50.216;7.912;2022-12-07T12:03:28;3.70;98.40
20574;DHT22;10445;50.216;7.912;2022-12-07T12:06:20;3.60;97.20
20574;DHT22;10445;50.216;7.912;2022-12-07T12:09:13;3.40;98.20
20574;DHT22;10445;50.216;7.912;2022-12-07T12:12:50;3.40;99.90
20574;DHT22;10445;50.216;7.912;2022-12-07T12:16:13;3.60;99.90
20574;DHT22;10445;50.216;7.912;2022-12-07T13:43:14;3.10;99.90
20574;DHT22;10445;50.216;7.912;2022-12-07T13:46:08;3.00;99.60
20574;DHT22;10445;50.216;7.912;2022-12-07T13:49:01;2.70;96.90
20574;DHT22;10445;50.216;7.912;2022-12-07T13:51:51;2.60;98.40
20574;DHT22;10445;50.216;7.912;2022-12-07T13:54:44;2.60;99.40
20574;DHT22;10445;50.216;7.912;2022-12-07T13:57:35;2.60;99.80
20574;DHT22;10445;50.216;7.912;2022-12-07T14:00:27;2.50;99.90
20574;DHT22;10445;50.216;7.912;2022-12-07T14:06:50;2.60;99.90
20574;DHT22;10445;50.216;7.912;2022-12-07T14:09:39;2.70;99.90
20574;DHT22;10445;50.216;7.912;2022-12-07T14:12:29;2.70;99.90
20574;DHT22;10445;50.216;7.912;2022-12-07T14:15:21;2.60;99.90
20574;DHT22;10445;50.216;7.912;2022-12-07T14:21:06;2.40;99.90
20574;DHT22;10445;50.216;7.912;2022-12-07T14:24:15;2.30;99.90
20574;DHT22;10445;50.216;7.912;2022-12-07T14:27:16;2.40;99.90
20574;DHT22;10445;50.216;7.912;2022-12-07T14:30:14;2.30;99.90
20574;DHT22;10445;50.216;7.912;2022-12-07T14:33:04;2.30;99.90
20574;DHT22;10445;50.216;7.912;2022-12-07T14:35:55;2.30;99.90
20574;DHT22;10445;50.216;7.912;2022-12-07T14:38:46;2.30;99.90
20574;DHT22;10445;50.216;7.912;2022-12-07T14:41:35;2.20;99.90
20574;DHT22;10445;50.216;7.912;2022-12-07T14:44:39;2.20;99.90
20574;DHT22;10445;50.216;7.912;2022-12-07T14:47:28;2.10;99.90
20574;DHT22;10445;50.216;7.912;2022-12-07T14:50:38;2.10;99.90
20574;DHT22;10445;50.216;7.912;2022-12-07T14:53:50;2.10;99.90
20574;DHT22;10445;50.216;7.912;2022-12-07T14:56:43;2.00;99.90
20574;DHT22;10445;50.216;7.912;2022-12-07T14:59:32;2.10;99.90
20574;DHT22;10445;50.216;7.912;2022-12-07T15:02:26;2.10;99.90
20574;DHT22;10445;50.216;7.912;2022-12-07T15:05:15;2.20;99.90
20574;DHT22;10445;50.216;7.912;2022-12-07T15:08:05;2.20;99.90
20574;DHT22;10445;50.216;7.912;2022-12-07T15:10:55;2.20;99.90
20574;DHT22;10445;50.216;7.912;2022-12-07T15:13:44;2.10;99.90
20574;DHT22;10445;50.216;7.912;2022-12-07T15:16:50;2.00;99.90
20574;DHT22;10445;50.216;7.912;2022-12-07T15:19:56;1.90;99.90
20574;DHT22;10445;50.216;7.912;2022-12-07T15:22:44;1.90;99.90
20574;DHT22;10445;50.216;7.912;2022-12-07T15:25:33;1.80;99.90
20574;DHT22;10445;50.216;7.912;2022-12-07T15:28:23;1.70;99.90
20574;DHT22;10445;50.216;7.912;2022-12-07T15:31:12;1.60;99.90
20574;DHT22;10445;50.216;7.912;2022-12-07T15:34:21;1.50;99.90
20574;DHT22;10445;50.216;7.912;2022-12-07T15:37:09;1.50;99.90
20574;DHT22;10445;50.216;7.912;2022-12-07T15:39:58;1.40;99.90
20574;DHT22;10445;50.216;7.912;2022-12-07T15:42:53;1.30;99.90
20574;DHT22;10445;50.216;7.912;2022-12-07T15:45:43;1.30;99.90
20574;DHT22;10445;50.216;7.912;2022-12-07T15:48:31;1.40;99.90
20574;DHT22;10445;50.216;7.912;2022-12-07T15:51:20;1.40;99.90
20574;DHT22;10445;50.216;7.912;2022-12-07T15:54:13;1.50;99.90
20574;DHT22;10445;50.216;7.912;2022-12-07T15:57:04;1.50;99.90
20574;DHT22;10445;50.216;7.912;2022-12-07T15:59:53;1.50;99.90
20574;DHT22;10445;50.216;7.912;2022-12-07T16:02:43;1.60;99.90
20574;DHT22;10445;50.216;7.912;2022-12-07T16:05:31;1.60;99.90
20574;DHT22;10445;50.216;7.912;2022-12-07T16:08:20;1.60;99.90
20574;DHT22;10445;50.216;7.912;2022-12-07T16:11:09;1.60;99.90
20574;DHT22;10445;50.216;7.912;2022-12-07T16:13:58;1.50;99.90
20574;DHT22;10445;50.216;7.912;2022-12-07T16:16:47;1.50;99.90
20574;DHT22;10445;50.216;7.912;2022-12-07T16:19:37;1.40;99.90
20574;DHT22;10445;50.216;7.912;2022-12-07T16:22:26;1.40;99.90
20574;DHT22;10445;50.216;7.912;2022-12-07T16:25:15;1.30;99.90
20574;DHT22;10445;50.216;7.912;2022-12-07T16:28:03;1.30;99.90
20574;DHT22;10445;50.216;7.912;2022-12-07T16:31:00;1.30;99.90
20574;DHT22;10445;50.216;7.912;2022-12-07T16:33:50;1.30;99.90
20574;DHT22;10445;50.216;7.912;2022-12-07T16:36:42;1.20;99.90
20574;DHT22;10445;50.216;7.912;2022-12-07T16:39:50;1.20;99.90
20574;DHT22;10445;50.216;7.912;2022-12-07T16:42:39;1.20;99.90
20574;DHT22;10445;50.216;7.912;2022-12-07T16:45:27;1.30;99.90
20574;DHT22;10445;50.216;7.912;2022-12-07T16:48:16;1.30;99.90
20574;DHT22;10445;50.216;7.912;2022-12-07T16:51:07;1.30;99.90
20574;DHT22;10445;50.216;7.912;2022-12-07T16:53:57;1.30;99.90
20574;DHT22;10445;50.216;7.912;2022-12-07T16:56:46;1.30;99.90
20574;DHT22;10445;50.216;7.912;2022-12-07T16:59:35;1.30;99.90
20574;DHT22;10445;50.216;7.912;2022-12-07T17:02:23;1.30;99.90
20574;DHT22;10445;50.216;7.912;2022-12-07T17:05:12;1.40;99.90
20574;DHT22;10445;50.216;7.912;2022-12-07T17:08:01;1.40;99.90
20574;DHT22;10445;50.216;7.912;2022-12-07T17:10:51;1.40;99.90
20574;DHT22;10445;50.216;7.912;2022-12-07T17:13:40;1.40;99.90
20574;DHT22;10445;50.216;7.912;2022-12-07T17:16:46;1.40;99.90
20574;DHT22;10445;50.216;7.912;2022-12-07T17:19:35;1.40;99.90
20574;DHT22;10445;50.216;7.912;2022-12-07T17:22:24;1.50;99.90
20574;DHT22;10445;50.216;7.912;2022-12-07T17:25:12;1.50;99.90
20574;DHT22;10445;50.216;7.912;2022-12-07T17:28:02;1.50;99.90
20574;DHT22;10445;50.216;7.912;2022-12-07T17:30:51;1.50;99.90
20574;DHT22;10445;50.216;7.912;2022-12-07T17:33:40;1.50;99.90
20574;DHT22;10445;50.216;7.912;2022-12-07T17:36:30;1.50;99.90
20574;DHT22;10445;50.216;7.912;2022-12-07T17:39:19;1.50;99.90
20574;DHT22;10445;50.216;7.912;2022-12-07T17:42:08;1.50;99.90
20574;DHT22;10445;50.216;7.912;2022-12-07T17:45:16;1.50;99.90
20574;DHT22;10445;50.216;7.912;2022-12-07T17:48:05;1.50;99.90
20574;DHT22;10445;50.216;7.912;2022-12-07T17:50:53;1.50;99.90
20574;DHT22;10445;50.216;7.912;2022-12-07T17:54:04;1.50;99.90
20574;DHT22;10445;50.216;7.912;2022-12-07T17:56:52;1.50;99.90
20574;DHT22;10445;50.216;7.912;2022-12-07T17:59:41;1.50;99.90
20574;DHT22;10445;50.216;7.912;2022-12-07T18:02:31;1.50;99.90
20574;DHT22;10445;50.216;7.912;2022-12-07T18:05:20;1.50;99.90
20574;DHT22;10445;50.216;7.912;2022-12-07T18:08:08;1.40;99.90
20574;DHT22;10445;50.216;7.912;2022-12-07T18:10:58;1.40;99.90
20574;DHT22;10445;50.216;7.912;2022-12-07T18:13:46;1.40;99.90
20574;DHT22;10445;50.216;7.912;2022-12-07T18:16:35;1.40;99.90
20574;DHT22;10445;50.216;7.912;2022-12-07T18:19:25;1.40;99.90
20574;DHT22;10445;50.216;7.912;2022-12-07T18:22:14;1.50;99.90
20574;DHT22;10445;50.216;7.912;2022-12-07T18:25:03;1.50;99.90
20574;DHT22;10445;50.216;7.912;2022-12-07T18:27:52;1.60;99.90
20574;DHT22;10445;50.216;7.912;2022-12-07T18:30:41;1.60;99.90
20574;DHT22;10445;50.216;7.912;2022-12-07T18:34:00;1.70;99.90
20574;DHT22;10445;50.216;7.912;2022-12-07T18:36:51;1.70;99.90
20574;DHT22;10445;50.216;7.912;2022-12-07T18:39:40;1.70;99.90
20574;DHT22;10445;50.216;7.912;2022-12-07T18:42:28;1.60;99.90
20574;DHT22;10445;50.216;7.912;2022-12-07T18:45:17;1.60;99.90
20574;DHT22;10445;50.216;7.912;2022-12-07T18:48:06;1.60;99.90
20574;DHT22;10445;50.216;7.912;2022-12-07T18:51:00;1.60;99.90
20574;DHT22;10445;50.216;7.912;2022-12-07T18:53:50;1.50;99.90
20574;DHT22;10445;50.216;7.912;2022-12-07T18:56:41;1.50;99.90
20574;DHT22;10445;50.216;7.912;2022-12-07T18:59:29;1.60;99.90
20574;DHT22;10445;50.216;7.912;2022-12-07T19:02:33;1.70;99.90
20574;DHT22;10445;50.216;7.912;2022-12-07T19:05:22;1.80;99.90
20574;DHT22;10445;50.216;7.912;2022-12-07T19:08:10;1.80;99.90
20574;DHT22;10445;50.216;7.912;2022-12-07T19:11:00;1.80;99.90
20574;DHT22;10445;50.216;7.912;2022-12-07T19:14:10;1.80;99.90
20574;DHT22;10445;50.216;7.912;2022-12-07T19:17:02;1.80;99.90
20574;DHT22;10445;50.216;7.912;2022-12-07T19:19:52;1.80;99.90
20574;DHT22;10445;50.216;7.912;2022-12-07T19:22:41;1.80;99.90
20574;DHT22;10445;50.216;7.912;2022-12-07T19:25:29;1.80;99.90
20574;DHT22;10445;50.216;7.912;2022-12-07T19:28:19;1.90;99.90
20574;DHT22;10445;50.216;7.912;2022-12-07T19:31:09;1.90;99.90
20574;DHT22;10445;50.216;7.912;2022-12-07T19:33:58;1.80;99.90
20574;DHT22;10445;50.216;7.912;2022-12-07T19:36:47;1.90;99.90
20574;DHT22;10445;50.216;7.912;2022-12-07T19:39:36;1.80;99.90
20574;DHT22;10445;50.216;7.912;2022-12-07T19:42:24;1.80;99.90
20574;DHT22;10445;50.216;7.912;2022-12-07T19:45:14;1.90;99.90
20574;DHT22;10445;50.216;7.912;2022-12-07T19:48:03;1.80;99.90
20574;DHT22;10445;50.216;7.912;2022-12-07T19:50:52;1.80;99.90
20574;DHT22;10445;50.216;7.912;2022-12-07T19:53:40;1.80;99.90
20574;DHT22;10445;50.216;7.912;2022-12-07T19:56:30;1.80;99.90
20574;DHT22;10445;50.216;7.912;2022-12-07T19:59:20;1.90;99.90
20574;DHT22;10445;50.216;7.912;2022-12-07T20:02:13;1.90;99.90
20574;DHT22;10445;50.216;7.912;2022-12-07T20:05:02;1.90;99.90